createdAt,value
2023-01-06T00:00:28.739Z,18.46
2023-01-06T00:02:56.471Z,18.46
2023-01-06T00:05:24.005Z,18.45
2023-01-06T00:07:51.602Z,18.45
2023-01-06T00:10:19.290Z,18.44
2023-01-06T00:12:46.829Z,18.44
2023-01-06T00:15:15.941Z,18.44
2023-01-06T00:17:43.511Z,18.43
2023-01-06T00:20:11.894Z,18.41
2023-01-06T00:22:40.006Z,18.41
2023-01-06T00:25:10.095Z,18.42
2023-01-06T00:27:37.821Z,18.43
2023-01-06T00:30:05.748Z,18.42
2023-01-06T00:32:34.787Z,18.40
2023-01-06T00:35:02.364Z,18.41
2023-01-06T00:37:29.967Z,18.40
2023-01-06T00:39:57.563Z,18.40
2023-01-06T00:42:25.853Z,18.40
2023-01-06T00:44:53.473Z,18.42
2023-01-06T00:47:21.694Z,18.42
2023-01-06T00:49:51.024Z,18.41
2023-01-06T00:52:18.688Z,18.41
2023-01-06T00:54:46.322Z,18.41
2023-01-06T00:57:15.307Z,18.41
2023-01-06T00:59:42.878Z,18.39
2023-01-06T01:02:10.537Z,18.40
2023-01-06T01:04:38.303Z,18.41
2023-01-06T01:07:07.311Z,18.39
2023-01-06T01:09:34.894Z,18.39
2023-01-06T01:12:11.878Z,18.40
2023-01-06T01:14:40.488Z,18.39
2023-01-06T01:17:08.104Z,18.41
2023-01-06T01:19:35.729Z,18.40
2023-01-06T01:22:03.326Z,18.39
2023-01-06T01:24:32.273Z,18.39
2023-01-06T01:26:59.988Z,18.40
2023-01-06T01:29:27.599Z,18.36
2023-01-06T01:31:55.350Z,18.40
2023-01-06T01:34:22.933Z,18.39
2023-01-06T01:36:50.926Z,18.39
2023-01-06T01:39:20.436Z,18.40
2023-01-06T01:41:49.710Z,18.42
2023-01-06T01:44:36.244Z,18.40
2023-01-06T01:47:04.146Z,18.42
2023-01-06T01:49:32.240Z,18.41
2023-01-06T01:51:59.785Z,18.41
2023-01-06T01:54:28.336Z,18.40
2023-01-06T01:56:57.918Z,18.41
2023-01-06T01:59:26.483Z,18.40
2023-01-06T02:01:54.371Z,18.41
2023-01-06T02:04:21.972Z,18.40
2023-01-06T02:06:50.618Z,18.40
2023-01-06T02:09:19.551Z,18.41
2023-01-06T02:11:48.912Z,18.40
2023-01-06T02:14:18.557Z,18.39
2023-01-06T02:16:59.846Z,18.40
2023-01-06T02:19:34.724Z,18.42
2023-01-06T02:22:06.909Z,18.41
2023-01-06T02:24:54.735Z,18.41
2023-01-06T02:27:30.974Z,18.42
2023-01-06T02:30:06.779Z,18.40
2023-01-06T02:32:39.459Z,18.40
2023-01-06T02:35:10.948Z,18.41
2023-01-06T02:37:43.662Z,18.41
2023-01-06T02:40:13.255Z,18.41
2023-01-06T02:42:43.421Z,18.42
2023-01-06T02:45:13.122Z,18.40
2023-01-06T02:47:43.985Z,18.41
2023-01-06T02:50:13.109Z,18.41
2023-01-06T02:52:42.777Z,18.40
2023-01-06T02:55:11.715Z,18.39
2023-01-06T02:57:40.774Z,18.39
2023-01-06T03:00:10.941Z,18.40
2023-01-06T03:02:38.717Z,18.41
2023-01-06T03:05:08.480Z,18.41
2023-01-06T03:07:37.220Z,18.40
2023-01-06T03:10:05.203Z,18.41
2023-01-06T03:12:33.722Z,18.40
2023-01-06T03:15:01.424Z,18.40
2023-01-06T03:17:29.026Z,18.40
2023-01-06T03:19:56.549Z,18.40
2023-01-06T03:22:25.728Z,18.40
2023-01-06T03:24:53.347Z,18.40
2023-01-06T03:27:24.249Z,18.40
2023-01-06T03:29:51.919Z,18.39
2023-01-06T03:32:20.415Z,18.40
2023-01-06T03:34:52.200Z,18.39
2023-01-06T03:37:22.314Z,18.39
2023-01-06T03:39:54.651Z,18.38
2023-01-06T03:42:41.520Z,18.39
2023-01-06T03:45:11.698Z,18.39
2023-01-06T03:47:40.602Z,18.38
2023-01-06T03:50:10.885Z,18.39
2023-01-06T03:52:40.804Z,18.40
2023-01-06T03:55:11.097Z,18.38
2023-01-06T03:57:39.004Z,18.41
2023-01-06T04:00:11.668Z,18.40
2023-01-06T04:02:46.069Z,18.41
2023-01-06T04:05:17.992Z,18.41
2023-01-06T04:07:46.508Z,18.41
2023-01-06T04:10:16.893Z,18.42
2023-01-06T04:12:44.355Z,18.40
2023-01-06T04:15:16.529Z,18.41
2023-01-06T04:17:46.116Z,18.41
2023-01-06T04:20:16.046Z,18.41
2023-01-06T04:22:44.405Z,18.40
2023-01-06T04:25:12.143Z,18.40
2023-01-06T04:27:42.568Z,18.40
2023-01-06T04:30:11.481Z,18.42
2023-01-06T04:32:39.215Z,18.42
2023-01-06T04:35:08.887Z,18.40
2023-01-06T04:37:36.523Z,18.40
2023-01-06T04:40:04.433Z,18.41
2023-01-06T04:42:52.646Z,18.40
2023-01-06T04:45:21.643Z,18.41
2023-01-06T04:47:49.202Z,18.39
2023-01-06T04:50:16.851Z,18.41
2023-01-06T04:52:44.478Z,18.41
2023-01-06T04:55:12.064Z,18.39
2023-01-06T04:57:39.709Z,18.38
2023-01-06T05:00:08.058Z,18.40
